Flight Track Log - Related Links

Times and Time Zones

All times are in EDT time to prevent confusion due to time zone crossing. See the N364PH flight status page for this flight to view local times or setup timezone preferences in your user account.

Time Position Orientation Groundspeed Altitude Reporting Facility
EDT Latitude Longitude Course Direction KTS MPH feet Rate Location/Type
Thu 05:50:16 AM 43.1075 -76.1319 268° West 123 142 1,200  Level Boston Center
Thu 05:51:20 AM 43.1056 -76.1944 268° West 159 183 2,700 1,559 Climbing Boston Center
Thu 05:52:23 AM 43.1031 -76.2681 267° West 180 207 4,500 1,707 Climbing Boston Center
Thu 05:53:23 AM 43.0825 -76.3208 242° Southwest 177 204 6,200 1,593 Climbing Boston Center
Thu 05:55:05 AM 43.0128 -76.3744 209° Southwest 176 203 8,800 1,416 Climbing New York Center
Thu 05:56:04 AM 42.9697 -76.4075 209° Southwest 181 208 10,000 600 Climbing New York Center
Thu 05:57:05 AM 42.9203 -76.4400 206° Southwest 188 216 10,000 397 Level New York Center
Thu 05:58:05 AM 42.8664 -76.4806 209° Southwest 214 246 10,800 992 Climbing New York Center
Thu 05:59:06 AM 42.8192 -76.5131 207° Southwest 209 241 12,000 1,059 Climbing New York Center
Thu 06:00:04 AM 42.7803 -76.5406 207° Southwest 204 235 12,900 1,068 Climbing New York Center
Thu 06:01:04 AM 42.7264 -76.5783 207° Southwest 204 235 14,100 1,131 Climbing New York Center
Thu 06:02:06 AM 42.6697 -76.5900 189° South 204 235 15,200 942 Climbing New York Center
Thu 06:03:05 AM 42.6069 -76.5986 186° South 216 249 16,000 353 Climbing New York Center
Thu 06:04:05 AM 42.5397 -76.6067 185° South 237 273 15,900 -50 Descending New York Center
Thu 06:05:04 AM 42.4642 -76.6194 187° South 259 298 15,900  Level New York Center
Thu 06:06:05 AM 42.3889 -76.6269 184° South 271 312 15,900  Level New York Center
Thu 06:07:04 AM 42.3156 -76.6372 186° South 276 318 15,900  Level New York Center
Thu 06:08:05 AM 42.2336 -76.6522 188° South 276 318 15,900  Level New York Center
Thu 06:09:04 AM 42.1603 -76.6625 186° South 276 318 15,900  Level New York Center
Thu 06:10:04 AM 42.0892 -76.6731 186° South 276 318 15,900  Level New York Center
Thu 06:11:06 AM 42.0156 -76.6831 186° South 276 318 15,900  Level New York Center
Thu 06:12:03 AM 41.9422 -76.6933 186° South 276 318 15,900  Level New York Center
Thu 06:13:04 AM 41.8708 -76.7036 186° South 270 311 15,900  Level New York Center
Thu 06:14:05 AM 41.7997 -76.7111 184° South 270 311 15,900 50 Level New York Center
Thu 06:15:05 AM 41.7264 -76.7214 186° South 270 311 16,000 50 Climbing New York Center
Thu 06:16:06 AM 41.6550 -76.7344 188° South 270 311 16,000  Level New York Center
Thu 06:17:03 AM 41.5814 -76.7444 186° South 270 311 16,000  Level New York Center
Thu 06:18:05 AM 41.5083 -76.7519 184° South 270 311 16,000  Level New York Center
Thu 06:19:06 AM 41.4347 -76.7647 187° South 270 311 16,000  Level New York Center
Thu 06:20:04 AM 41.3633 -76.7750 186° South 270 311 16,000  Level New York Center
Thu 06:21:05 AM 41.2983 -76.7831 185° South 270 311 16,000  Level New York Center
Thu 06:22:05 AM 41.2289 -76.7989 190° South 265 305 16,000  Level New York Center
Thu 06:23:03 AM 41.1594 -76.8119 188° South 260 299 16,000  Level New York Center
Thu 06:24:04 AM 41.0878 -76.8275 189° South 260 299 16,000  Level New York Center
Thu 06:25:05 AM 41.0183 -76.8406 188° South 260 299 16,000  Level New York Center
Thu 06:26:06 AM 40.9406 -76.8558 188° South 260 299 16,000  Level New York Center
Thu 06:27:05 AM 40.8794 -76.8667 188° South 254 292 16,000  Level New York Center
Thu 06:28:05 AM 40.7994 -76.8817 188° South 259 298 16,000  Level New York Center
Thu 06:29:06 AM 40.7381 -76.9008 193° South 259 298 16,000 -50 Level New York Center
Thu 06:30:04 AM 40.6639 -76.9242 193° South 259 298 15,900 -51 Descending New York Center
Thu 06:31:04 AM 40.6025 -76.9433 193° South 259 298 15,900  Level New York Center
Thu 06:32:05 AM 40.5261 -76.9664 193° South 259 298 15,900  Level New York Center
Thu 06:33:04 AM 40.4667 -76.9858 194° South 259 298 15,900 -50 Level New York Center
Thu 06:34:05 AM 40.3906 -77.0089 193° South 259 298 15,800 -496 Descending New York Center
Thu 06:35:05 AM 40.3289 -77.0306 195° South 259 298 14,900 -970 Descending New York Center
Thu 06:37:23 AM 40.1667 -77.0833 194° South 259 298 12,600 -1,019 Descending Potomac TRACON
Thu 06:39:00 AM 40.0514 -77.1038 191° South  Level FlightAware Approximate
Thu 06:40:23 AM 39.9500 -77.1500 191° South 267 307 9,500  Level Potomac TRACON
Thu 06:41:11 AM 39.8833 -77.1667 191° South 259 298 9,000 -667 Descending Potomac TRACON
Thu 06:42:11 AM 39.8333 -77.2167 218° Southwest 251 289 8,300 -550 Descending Potomac TRACON
Thu 06:43:11 AM 39.7667 -77.2500 201° Southwest 246 283 7,900 -632 Descending Potomac TRACON
Thu 06:44:05 AM 39.7167 -77.2833 207° Southwest 249 287 7,100 -474 Descending Potomac TRACON
Thu 06:45:05 AM 39.6500 -77.3167 201° Southwest 240 276 7,000 -368 Descending Potomac TRACON
Thu 06:45:59 AM 39.6000 -77.3667 218° Southwest 240 276 6,400 -526 Descending Potomac TRACON
Thu 06:46:59 AM 39.5333 -77.4000 201° Southwest 238 274 6,000 -200 Descending Potomac TRACON
Thu 06:47:59 AM 39.4833 -77.4167 194° South 237 273 6,000 -526 Level Potomac TRACON
Thu 06:48:53 AM 39.4167 -77.4333 191° South 251 289 5,000 -1,000 Descending Potomac TRACON
Thu 06:49:53 AM 39.3500 -77.4333 180° South 247 284 4,100 -526 Descending Potomac TRACON
Thu 06:50:47 AM 39.2833 -77.4333 180° South 232 267 4,000 -579 Descending Potomac TRACON
Thu 06:51:47 AM 39.2167 -77.4333 180° South 260 299 3,000 -500 Descending Potomac TRACON
Thu 06:52:47 AM 39.1500 -77.4333 180° South 252 290 3,000 -105 Level Potomac TRACON
Thu 06:53:41 AM 39.0833 -77.4333 180° South 241 277 2,800 -684 Descending Potomac TRACON
Thu 06:54:41 AM 39.0333 -77.4333 180° South 196 226 1,700 -900 Descending Potomac TRACON
Thu 06:55:41 AM 38.9833 -77.4333 180° South 123 142 1,000 -700 Descending Potomac TRACON
Thu 06:57:00 AM 38.9474 -77.4599 180° South  Level Estimated
Thu 07:04:00 AM 38.9474 -77.4599 349° North  Level Estimated
Thu 07:05:00 AM 38.9474 -77.4599 349° North  Level Estimated
Thu 07:06:00 AM 38.9474 -77.4599 349° North  Level Estimated

Login

Don't have an account? Register now (free) for customized features, flight alerts, and more!